createdAt,value
2017-04-16T00:00:05.440Z,7.16
2017-04-16T00:01:16.463Z,7.13
2017-04-16T00:02:27.692Z,7.09
2017-04-16T00:03:38.907Z,7
2017-04-16T00:04:50.292Z,7.03
2017-04-16T00:06:01.528Z,6.98
2017-04-16T00:07:12.622Z,7.03
2017-04-16T00:08:23.649Z,6.97
2017-04-16T00:09:34.876Z,6.97
2017-04-16T00:10:45.898Z,7.01
2017-04-16T00:11:56.927Z,7.04
2017-04-16T00:13:07.945Z,7.03
2017-04-16T00:14:18.981Z,7
2017-04-16T00:15:30.204Z,7.01
2017-04-16T00:16:41.291Z,7.01
2017-04-16T00:17:52.531Z,6.97
2017-04-16T00:19:03.560Z,7.08
2017-04-16T00:20:14.587Z,7.08
2017-04-16T00:21:25.603Z,7.12
2017-04-16T00:22:36.994Z,7
2017-04-16T00:23:48.432Z,7.01
2017-04-16T00:24:59.471Z,7.05
2017-04-16T00:26:10.514Z,7.05
2017-04-16T00:27:21.795Z,7.04
2017-04-16T00:28:32.820Z,7.05
2017-04-16T00:29:43.849Z,7.03
2017-04-16T00:30:54.874Z,7.05
2017-04-16T00:32:05.907Z,7.03
2017-04-16T00:33:16.941Z,7.04
2017-04-16T00:34:27.960Z,6.97
2017-04-16T00:35:38.986Z,7
2017-04-16T00:36:50.011Z,7.08
2017-04-16T00:38:01.501Z,7.03
2017-04-16T00:39:12.534Z,7.04
2017-04-16T00:40:23.753Z,7.05
2017-04-16T00:41:34.783Z,7.05
2017-04-16T00:42:45.823Z,7.12
2017-04-16T00:43:56.852Z,7.03
2017-04-16T00:45:08.132Z,7.04
2017-04-16T00:46:19.164Z,7.04
2017-04-16T00:47:30.194Z,7.05
2017-04-16T00:48:41.223Z,7.03
2017-04-16T00:49:52.511Z,7.03
2017-04-16T00:51:03.542Z,7.01
2017-04-16T00:52:14.770Z,7.01
2017-04-16T00:53:25.801Z,7.01
2017-04-16T00:54:36.834Z,7.04
2017-04-16T00:55:47.868Z,7.04
2017-04-16T00:56:58.891Z,7.01
2017-04-16T00:58:09.920Z,7.05
2017-04-16T00:59:21.002Z,7.03
2017-04-16T01:00:32.019Z,7
2017-04-16T01:01:43.053Z,7.04
2017-04-16T01:02:54.068Z,7.01
2017-04-16T01:04:05.094Z,7.05
2017-04-16T01:05:16.329Z,7
2017-04-16T01:06:27.594Z,7.05
2017-04-16T01:07:38.817Z,7.03
2017-04-16T01:08:50.036Z,7.11
2017-04-16T01:10:01.119Z,7.03
2017-04-16T01:11:12.153Z,7.05
2017-04-16T01:12:23.192Z,7.05
2017-04-16T01:13:34.225Z,6.94
2017-04-16T01:14:45.662Z,7
2017-04-16T01:15:56.696Z,6.93
2017-04-16T01:17:07.932Z,6.93
2017-04-16T01:18:18.951Z,6.95
2017-04-16T01:19:29.976Z,6.93
2017-04-16T01:20:41.042Z,6.94
2017-04-16T01:21:52.066Z,6.93
2017-04-16T01:23:03.296Z,6.91
2017-04-16T01:24:14.325Z,6.9
2017-04-16T01:25:25.364Z,6.93
2017-04-16T01:26:36.393Z,6.95
2017-04-16T01:27:47.435Z,6.9
2017-04-16T01:28:58.691Z,6.95
2017-04-16T01:30:10.042Z,6.9
2017-04-16T01:31:21.060Z,6.8
2017-04-16T01:32:32.142Z,6.78
2017-04-16T01:33:43.182Z,6.79
2017-04-16T01:34:54.418Z,6.76
2017-04-16T01:36:05.449Z,6.83
2017-04-16T01:37:16.476Z,6.8
2017-04-16T01:38:27.489Z,6.8
2017-04-16T01:39:38.523Z,6.8
2017-04-16T01:40:49.750Z,6.85
2017-04-16T01:42:00.835Z,6.9
2017-04-16T01:43:11.874Z,6.83
2017-04-16T01:44:22.888Z,6.72
2017-04-16T01:45:34.116Z,6.76
2017-04-16T01:46:45.144Z,6.62
2017-04-16T01:47:56.399Z,6.68
2017-04-16T01:49:07.431Z,6.62
2017-04-16T01:50:18.457Z,6.58
2017-04-16T01:51:29.530Z,6.57
2017-04-16T01:52:40.616Z,6.57
2017-04-16T01:53:51.840Z,6.52
2017-04-16T01:55:02.855Z,6.58
2017-04-16T01:56:13.869Z,6.55
2017-04-16T01:57:24.880Z,6.51
2017-04-16T01:58:35.912Z,6.52
2017-04-16T01:59:47.136Z,6.49
2017-04-16T02:00:58.375Z,6.46
2017-04-16T02:02:09.395Z,6.47
2017-04-16T02:03:20.462Z,6.54
2017-04-16T02:04:31.691Z,6.51
2017-04-16T02:05:42.714Z,6.44
2017-04-16T02:06:53.939Z,6.4
2017-04-16T02:08:04.957Z,6.39
2017-04-16T02:09:16.185Z,6.37
2017-04-16T02:10:27.402Z,6.36
2017-04-16T02:11:38.981Z,6.43
2017-04-16T02:12:50.237Z,6.39
2017-04-16T02:14:01.268Z,6.33
2017-04-16T02:15:12.341Z,6.34
2017-04-16T02:16:23.361Z,6.29
2017-04-16T02:17:34.390Z,6.28
2017-04-16T02:18:45.618Z,6.24
2017-04-16T02:19:56.680Z,6.26
2017-04-16T02:21:07.709Z,6.24
2017-04-16T02:22:18.766Z,6.1
2017-04-16T02:23:29.803Z,6.2
2017-04-16T02:24:40.887Z,6.2
2017-04-16T02:25:51.916Z,6.18
2017-04-16T02:27:03.134Z,6.2
2017-04-16T02:28:14.160Z,6.09
2017-04-16T02:29:25.180Z,6.1
2017-04-16T02:30:36.207Z,6.14
2017-04-16T02:31:47.249Z,6.2
2017-04-16T02:32:58.455Z,6.1
2017-04-16T02:34:09.487Z,6.14
2017-04-16T02:35:20.562Z,6.14
2017-04-16T02:36:31.580Z,6.2
2017-04-16T02:37:42.806Z,6.14
2017-04-16T02:38:53.826Z,6.2
2017-04-16T02:40:04.852Z,6.21
2017-04-16T02:41:16.084Z,6.15
2017-04-16T02:42:27.112Z,6.15
2017-04-16T02:43:38.142Z,6.07
2017-04-16T02:44:49.377Z,6.17
2017-04-16T02:46:00.439Z,6.15
2017-04-16T02:47:11.462Z,6.14
2017-04-16T02:48:22.491Z,6.06
2017-04-16T02:49:33.518Z,6.1
2017-04-16T02:50:44.749Z,6.07
2017-04-16T02:51:55.981Z,6.03
2017-04-16T02:53:07.001Z,6.06
2017-04-16T02:54:18.015Z,6.07
2017-04-16T02:55:29.028Z,6.02
2017-04-16T02:56:40.409Z,6.07
2017-04-16T02:57:51.490Z,6.05
2017-04-16T02:59:02.518Z,5.95
2017-04-16T03:00:13.556Z,5.95
2017-04-16T03:01:24.586Z,6.02
2017-04-16T03:02:35.814Z,6.03
2017-04-16T03:03:47.038Z,5.92
2017-04-16T03:04:58.071Z,6.02
2017-04-16T03:06:09.094Z,6.05
2017-04-16T03:07:20.178Z,5.98
2017-04-16T03:08:31.203Z,5.99
2017-04-16T03:09:42.445Z,6
2017-04-16T03:10:53.478Z,6.03
2017-04-16T03:12:04.693Z,6.02
2017-04-16T03:13:15.732Z,6.03
2017-04-16T03:14:26.953Z,5.89
2017-04-16T03:15:38.196Z,6
2017-04-16T03:16:49.229Z,5.96
2017-04-16T03:18:00.308Z,5.88
2017-04-16T03:19:11.332Z,5.95
2017-04-16T03:20:22.416Z,5.84
2017-04-16T03:21:33.847Z,5.84
2017-04-16T03:22:44.870Z,5.78
2017-04-16T03:23:55.891Z,5.84
2017-04-16T03:25:07.110Z,5.87
2017-04-16T03:26:18.344Z,5.85
2017-04-16T03:27:29.580Z,5.87
2017-04-16T03:28:40.607Z,5.77
2017-04-16T03:29:51.638Z,5.73
2017-04-16T03:31:02.661Z,5.81
2017-04-16T03:32:13.692Z,5.75
2017-04-16T03:33:24.718Z,5.78
2017-04-16T03:34:35.759Z,5.78
2017-04-16T03:35:46.785Z,5.7
2017-04-16T03:36:57.812Z,5.8
2017-04-16T03:38:09.037Z,5.75
2017-04-16T03:39:20.517Z,5.73
2017-04-16T03:40:31.544Z,5.78
2017-04-16T03:41:42.766Z,5.75
2017-04-16T03:42:53.794Z,5.78
2017-04-16T03:44:04.831Z,5.72
2017-04-16T03:45:15.864Z,5.69
2017-04-16T03:46:26.891Z,5.72
2017-04-16T03:47:37.904Z,5.72
2017-04-16T03:48:48.957Z,5.77
2017-04-16T03:50:00.240Z,5.73
2017-04-16T03:51:11.257Z,5.67
2017-04-16T03:52:22.318Z,5.7
2017-04-16T03:53:33.355Z,5.64
2017-04-16T03:54:44.379Z,5.67
2017-04-16T03:55:55.417Z,5.69
2017-04-16T03:57:06.438Z,5.69
2017-04-16T03:58:17.662Z,5.72
2017-04-16T03:59:28.697Z,5.7
2017-04-16T04:00:39.727Z,5.67
2017-04-16T04:01:50.743Z,5.66
2017-04-16T04:03:01.762Z,5.69
2017-04-16T04:04:12.798Z,5.66
2017-04-16T04:05:24.078Z,5.63
2017-04-16T04:06:35.108Z,5.55
2017-04-16T04:07:46.804Z,5.55
2017-04-16T04:08:57.926Z,5.6
2017-04-16T04:10:08.942Z,5.55
2017-04-16T04:11:19.974Z,5.54
2017-04-16T04:12:31.010Z,5.6
2017-04-16T04:13:42.046Z,5.59
2017-04-16T04:14:53.271Z,5.57
2017-04-16T04:16:04.305Z,5.54
2017-04-16T04:17:15.340Z,5.63
2017-04-16T04:18:26.369Z,5.52
2017-04-16T04:19:37.387Z,5.55
2017-04-16T04:20:48.413Z,5.54
2017-04-16T04:21:59.504Z,5.52
2017-04-16T04:23:10.522Z,5.49
2017-04-16T04:24:21.764Z,5.57
2017-04-16T04:25:32.995Z,5.46
2017-04-16T04:26:44.217Z,5.55
2017-04-16T04:27:55.256Z,5.49
2017-04-16T04:29:06.287Z,5.52
2017-04-16T04:30:17.345Z,5.51
2017-04-16T04:31:28.369Z,5.54
2017-04-16T04:32:39.434Z,5.51
2017-04-16T04:33:50.620Z,5.51
2017-04-16T04:35:01.643Z,5.54
2017-04-16T04:36:12.672Z,5.51
2017-04-16T04:37:23.702Z,5.59
2017-04-16T04:38:34.725Z,5.45
2017-04-16T04:39:45.951Z,5.51
2017-04-16T04:40:56.987Z,5.57
2017-04-16T04:42:08.046Z,5.51
2017-04-16T04:43:19.121Z,5.46
2017-04-16T04:44:30.345Z,5.42
2017-04-16T04:45:41.371Z,5.48
2017-04-16T04:46:52.408Z,5.44
2017-04-16T04:48:03.429Z,5.44
2017-04-16T04:49:14.457Z,5.44
2017-04-16T04:50:25.485Z,5.46
2017-04-16T04:51:36.500Z,5.44
2017-04-16T04:52:47.722Z,5.34
2017-04-16T04:53:58.753Z,5.41
2017-04-16T04:55:09.786Z,5.42
2017-04-16T04:56:21.127Z,5.42
2017-04-16T04:57:32.146Z,5.37
2017-04-16T04:58:43.168Z,5.34
2017-04-16T04:59:54.220Z,5.42
2017-04-16T05:01:05.245Z,5.44
2017-04-16T05:02:16.472Z,5.39
2017-04-16T05:03:27.500Z,5.45
2017-04-16T05:04:38.580Z,5.42
2017-04-16T05:05:49.807Z,5.51
2017-04-16T05:07:00.827Z,5.55
2017-04-16T05:08:11.854Z,5.51
2017-04-16T05:09:22.885Z,5.63
2017-04-16T05:10:34.123Z,5.57
2017-04-16T05:11:45.151Z,5.67
2017-04-16T05:12:56.182Z,5.77
2017-04-16T05:14:07.212Z,5.8
2017-04-16T05:15:18.238Z,5.8
2017-04-16T05:16:29.266Z,5.77
2017-04-16T05:17:40.493Z,5.73
2017-04-16T05:18:51.999Z,5.85
2017-04-16T05:20:03.235Z,5.85
2017-04-16T05:21:14.540Z,5.95
2017-04-16T05:22:25.571Z,6.05
2017-04-16T05:23:36.602Z,6
2017-04-16T05:24:48.035Z,6.05
2017-04-16T05:25:59.070Z,5.96
2017-04-16T05:27:10.098Z,5.99
2017-04-16T05:28:21.111Z,6.09
2017-04-16T05:29:32.139Z,6.15
2017-04-16T05:30:43.407Z,6.15
2017-04-16T05:31:54.429Z,6.13
2017-04-16T05:33:05.456Z,6.14
2017-04-16T05:34:16.505Z,6.17
2017-04-16T05:35:27.528Z,6.34
2017-04-16T05:36:38.557Z,6.43
2017-04-16T05:37:49.603Z,6.43
2017-04-16T05:39:00.838Z,6.55
2017-04-16T05:40:11.858Z,6.61
2017-04-16T05:41:23.090Z,6.7
2017-04-16T05:42:34.122Z,6.76
2017-04-16T05:43:45.164Z,6.83
2017-04-16T05:44:56.469Z,6.94
2017-04-16T05:46:07.486Z,6.95
2017-04-16T05:47:18.763Z,6.88
2017-04-16T05:48:29.799Z,6.93
2017-04-16T05:49:41.036Z,6.86
2017-04-16T05:50:52.069Z,6.91
2017-04-16T05:52:03.101Z,6.9
2017-04-16T05:53:14.137Z,6.97
2017-04-16T05:54:25.191Z,7.13
2017-04-16T05:55:36.626Z,7.19
2017-04-16T05:56:47.681Z,7.21
2017-04-16T05:57:58.754Z,7.31
2017-04-16T05:59:09.782Z,7.54
2017-04-16T06:00:20.810Z,7.59
2017-04-16T06:01:31.847Z,7.73
2017-04-16T06:02:42.893Z,7.8
2017-04-16T06:03:53.918Z,7.88
2017-04-16T06:05:04.943Z,7.92
2017-04-16T06:06:15.979Z,7.93
2017-04-16T06:07:27.011Z,8.04
2017-04-16T06:08:38.097Z,7.96
2017-04-16T06:09:49.143Z,8.09
2017-04-16T06:11:00.272Z,8.1
2017-04-16T06:12:11.307Z,8.19
2017-04-16T06:13:22.338Z,8.14
2017-04-16T06:14:33.416Z,8.19
2017-04-16T06:15:44.654Z,8.16
2017-04-16T06:16:55.678Z,8.19
2017-04-16T06:18:06.706Z,8.24
2017-04-16T06:19:17.946Z,8.31
2017-04-16T06:20:28.983Z,8.34
2017-04-16T06:21:40.002Z,8.4
2017-04-16T06:22:51.027Z,8.49
2017-04-16T06:24:02.062Z,8.52
2017-04-16T06:25:13.115Z,8.57
2017-04-16T06:26:24.208Z,8.57
2017-04-16T06:27:35.231Z,8.67
2017-04-16T06:28:46.262Z,8.68
2017-04-16T06:29:57.304Z,8.76
2017-04-16T06:31:08.325Z,8.89
2017-04-16T06:32:19.760Z,8.98
2017-04-16T06:33:30.786Z,9.05
2017-04-16T06:34:41.817Z,9.29
2017-04-16T06:35:53.100Z,9.45
2017-04-16T06:37:04.332Z,9.84
2017-04-16T06:38:15.361Z,9.89
2017-04-16T06:39:26.591Z,10.14
2017-04-16T06:40:37.827Z,10.38
2017-04-16T06:41:49.138Z,10.77
2017-04-16T06:43:00.167Z,10.98
2017-04-16T06:44:11.221Z,11.16
2017-04-16T06:45:22.270Z,11.21
2017-04-16T06:46:33.349Z,11.23
2017-04-16T06:47:44.594Z,11.46
2017-04-16T06:48:55.616Z,11.49
2017-04-16T06:50:06.670Z,11.56
2017-04-16T06:51:17.703Z,11.52
2017-04-16T06:52:28.739Z,11.68
2017-04-16T06:53:39.978Z,11.73
2017-04-16T06:54:51.047Z,11.86
2017-04-16T06:56:02.286Z,11.94
2017-04-16T06:57:13.566Z,12.05
2017-04-16T06:58:24.605Z,12.26
2017-04-16T06:59:35.646Z,12.2
2017-04-16T07:00:46.890Z,12.4
2017-04-16T07:01:58.117Z,12.55
2017-04-16T07:03:09.156Z,12.8
2017-04-16T07:04:20.182Z,12.98
2017-04-16T07:05:31.223Z,13.09
2017-04-16T07:06:42.459Z,13.2
2017-04-16T07:07:53.506Z,13.4
2017-04-16T07:09:04.782Z,13.83
2017-04-16T07:10:15.819Z,14.03
2017-04-16T07:11:27.060Z,14.2
2017-04-16T07:12:38.319Z,14.48
2017-04-16T07:13:49.359Z,14.75
2017-04-16T07:15:00.609Z,14.97
2017-04-16T07:16:11.651Z,15.22
2017-04-16T07:17:22.699Z,15.49
2017-04-16T07:18:33.998Z,15.65
2017-04-16T07:19:45.038Z,15.84
2017-04-16T07:20:56.073Z,15.84
2017-04-16T07:22:07.318Z,15.86
2017-04-16T07:23:18.565Z,16.04
2017-04-16T07:24:29.602Z,16.04
2017-04-16T07:25:41.249Z,16.06
2017-04-16T07:26:52.335Z,16.16
2017-04-16T07:28:03.579Z,16.39
2017-04-16T07:29:15.072Z,16.51
2017-04-16T07:30:26.308Z,16.48
2017-04-16T07:31:37.350Z,16.39
2017-04-16T07:32:48.598Z,16.27
2017-04-16T07:33:59.672Z,16.14
2017-04-16T07:35:10.713Z,16.3
2017-04-16T07:36:21.967Z,16.52
2017-04-16T07:37:33.182Z,16.62
2017-04-16T07:38:44.230Z,16.4
2017-04-16T07:39:55.280Z,16.25
2017-04-16T07:41:06.340Z,16.3
2017-04-16T07:42:17.390Z,16.17
2017-04-16T07:43:28.434Z,15.91
2017-04-16T07:44:39.483Z,15.84
2017-04-16T07:45:50.534Z,15.81
2017-04-16T07:47:01.781Z,16.17
2017-04-16T07:48:12.819Z,16.52
2017-04-16T07:49:23.862Z,16.72
2017-04-16T07:50:34.915Z,16.7
2017-04-16T07:51:45.967Z,16.45
2017-04-16T07:52:57.003Z,16.33
2017-04-16T07:54:08.054Z,15.99
2017-04-16T07:55:19.336Z,15.88
2017-04-16T07:56:30.392Z,15.44
2017-04-16T07:57:41.645Z,15.27
2017-04-16T07:58:52.698Z,15.18
2017-04-16T08:00:03.750Z,14.94
2017-04-16T08:01:15.281Z,14.61
2017-04-16T08:02:26.439Z,14.36
2017-04-16T08:03:37.491Z,14.11
2017-04-16T08:04:48.754Z,14.02
2017-04-16T08:05:59.844Z,14.53
2017-04-16T08:07:10.867Z,14.97
2017-04-16T08:08:21.923Z,15.18
2017-04-16T08:09:32.963Z,14.69
2017-04-16T08:10:44.008Z,14.63
2017-04-16T08:11:55.043Z,14.9
2017-04-16T08:13:06.280Z,15.2
2017-04-16T08:14:17.321Z,15.47
2017-04-16T08:15:28.558Z,15.74
2017-04-16T08:16:39.848Z,15.7
2017-04-16T08:17:50.883Z,15.83
2017-04-16T08:19:01.915Z,15.59
2017-04-16T08:20:12.954Z,15.49
2017-04-16T08:21:24.199Z,15.67
2017-04-16T08:22:35.250Z,16.1
2017-04-16T08:23:46.294Z,16.27
2017-04-16T08:24:57.334Z,15.96
2017-04-16T08:26:08.375Z,15.86
2017-04-16T08:27:19.618Z,15.95
2017-04-16T08:28:30.666Z,16.29
2017-04-16T08:29:41.944Z,16.42
2017-04-16T08:30:53.230Z,16.77
2017-04-16T08:32:04.284Z,16.95
2017-04-16T08:33:15.441Z,16.73
2017-04-16T08:34:26.687Z,16.04
2017-04-16T08:35:37.724Z,15.86
2017-04-16T08:36:48.772Z,15.89
2017-04-16T08:37:59.823Z,16.08
2017-04-16T08:39:10.869Z,16.39
2017-04-16T08:40:21.923Z,16.47
2017-04-16T08:41:32.972Z,16.67
2017-04-16T08:42:44.026Z,16.87
2017-04-16T08:43:55.333Z,17.12
2017-04-16T08:45:06.361Z,17.69
2017-04-16T08:46:17.390Z,18.03
2017-04-16T08:47:28.420Z,18.19
2017-04-16T08:48:39.664Z,18.5
2017-04-16T08:49:50.712Z,18.47
2017-04-16T08:51:01.772Z,18.54
2017-04-16T08:52:13.010Z,18.14
2017-04-16T08:53:24.050Z,17.66
2017-04-16T08:54:35.351Z,17.05
2017-04-16T08:55:46.392Z,17
2017-04-16T08:56:57.635Z,17
2017-04-16T08:58:08.689Z,16.95
2017-04-16T08:59:20.177Z,16.7
2017-04-16T09:00:31.417Z,16.45
2017-04-16T09:01:42.461Z,16.32
2017-04-16T09:02:53.519Z,16.67
2017-04-16T09:04:04.557Z,16.94
2017-04-16T09:05:15.592Z,17.28
2017-04-16T09:06:26.642Z,17.55
2017-04-16T09:07:37.888Z,17.69
2017-04-16T09:08:48.979Z,17.69
2017-04-16T09:10:00.225Z,17.47
2017-04-16T09:11:11.716Z,17.2
2017-04-16T09:12:22.783Z,17.09
2017-04-16T09:13:33.840Z,16.9
2017-04-16T09:14:44.877Z,16.63
2017-04-16T09:15:55.937Z,16.47
2017-04-16T09:17:06.980Z,16.37
2017-04-16T09:18:18.210Z,16.25
2017-04-16T09:19:29.457Z,16.36
2017-04-16T09:20:40.698Z,16.33
2017-04-16T09:21:51.759Z,16.27
2017-04-16T09:23:02.797Z,16.13
2017-04-16T09:24:13.845Z,16.07
2017-04-16T09:25:24.939Z,16.07
2017-04-16T09:26:35.972Z,15.96
2017-04-16T09:27:47.011Z,15.86
2017-04-16T09:28:58.065Z,15.77
2017-04-16T09:30:09.101Z,15.83
2017-04-16T09:31:20.131Z,16.07
2017-04-16T09:32:31.165Z,16.49
2017-04-16T09:33:42.206Z,16.9
2017-04-16T09:34:53.245Z,17.15
2017-04-16T09:36:04.338Z,16.94
2017-04-16T09:37:15.370Z,16.74
2017-04-16T09:38:26.611Z,16.59
2017-04-16T09:39:37.674Z,16.49
2017-04-16T09:40:48.710Z,16.45
2017-04-16T09:41:59.901Z,16.4
2017-04-16T09:43:10.950Z,16.26
2017-04-16T09:44:22.000Z,16.1
2017-04-16T09:45:33.037Z,15.92
2017-04-16T09:46:44.084Z,15.88
2017-04-16T09:47:55.296Z,15.6
2017-04-16T09:49:06.334Z,15.63
2017-04-16T09:50:17.496Z,15.83
2017-04-16T09:51:28.744Z,15.91
2017-04-16T09:52:39.781Z,15.99
2017-04-16T09:53:50.821Z,16.3
2017-04-16T09:55:01.857Z,16.55
2017-04-16T09:56:12.903Z,16.58
2017-04-16T09:57:23.989Z,16.67
2017-04-16T09:58:35.037Z,16.55
2017-04-16T09:59:46.075Z,16.7
2017-04-16T10:00:57.513Z,16.74
2017-04-16T10:02:08.741Z,16.66
2017-04-16T10:03:19.781Z,16.67
2017-04-16T10:04:30.823Z,17
2017-04-16T10:05:42.065Z,17.42
2017-04-16T10:06:53.105Z,17.28
2017-04-16T10:08:04.413Z,17.09
2017-04-16T10:09:15.664Z,17.05
2017-04-16T10:10:26.724Z,16.88
2017-04-16T10:11:37.768Z,16.67
2017-04-16T10:12:49.333Z,16.69
2017-04-16T10:14:00.377Z,16.62
2017-04-16T10:15:11.413Z,16.49
2017-04-16T10:16:22.455Z,16.34
2017-04-16T10:17:33.491Z,16.32
2017-04-16T10:18:44.807Z,16.21
2017-04-16T10:19:56.057Z,16.04
2017-04-16T10:21:07.302Z,16.07
2017-04-16T10:22:18.544Z,16.21
2017-04-16T10:23:29.579Z,16.07
2017-04-16T10:24:40.625Z,16.02
2017-04-16T10:25:51.668Z,15.98
2017-04-16T10:27:02.720Z,15.8
2017-04-16T10:28:13.759Z,15.62
2017-04-16T10:29:25.400Z,15.45
2017-04-16T10:30:36.428Z,15.49
2017-04-16T10:31:47.487Z,15.47
2017-04-16T10:32:58.728Z,15.63
2017-04-16T10:34:09.781Z,15.88
2017-04-16T10:35:20.835Z,16.07
2017-04-16T10:36:31.859Z,16.32
2017-04-16T10:37:43.425Z,16.69
2017-04-16T10:38:54.587Z,17.02
2017-04-16T10:40:05.681Z,16.97
2017-04-16T10:41:16.714Z,17.07
2017-04-16T10:42:27.752Z,16.9
2017-04-16T10:43:38.787Z,16.84
2017-04-16T10:44:49.826Z,17.07
2017-04-16T10:46:01.080Z,17.24
2017-04-16T10:47:12.116Z,17.36
2017-04-16T10:48:23.148Z,17.47
2017-04-16T10:49:34.396Z,17.38
2017-04-16T10:50:45.698Z,17.35
2017-04-16T10:51:56.741Z,17.13
2017-04-16T10:53:07.796Z,16.99
2017-04-16T10:54:18.836Z,16.67
2017-04-16T10:55:29.880Z,16.58
2017-04-16T10:56:41.128Z,16.52
2017-04-16T10:57:52.174Z,16.59
2017-04-16T10:59:03.229Z,16.7
2017-04-16T11:00:14.832Z,16.65
2017-04-16T11:01:25.912Z,16.7
2017-04-16T11:02:36.954Z,16.76
2017-04-16T11:03:48.001Z,16.63
2017-04-16T11:04:59.238Z,16.74
2017-04-16T11:06:10.282Z,16.99
2017-04-16T11:07:21.528Z,17.4
2017-04-16T11:08:32.966Z,17.8
2017-04-16T11:09:43.994Z,18.05
2017-04-16T11:10:55.043Z,18.24
2017-04-16T11:12:06.089Z,18.49
2017-04-16T11:13:17.183Z,18.57
2017-04-16T11:14:28.232Z,18.47
2017-04-16T11:15:39.284Z,18.38
2017-04-16T11:16:50.321Z,18.31
2017-04-16T11:18:01.412Z,18.23
2017-04-16T11:19:12.476Z,18.21
2017-04-16T11:20:23.519Z,18.23
2017-04-16T11:21:34.560Z,18.31
2017-04-16T11:22:45.699Z,18.29
2017-04-16T11:23:56.750Z,18.24
2017-04-16T11:25:07.790Z,18.2
2017-04-16T11:26:19.190Z,17.98
2017-04-16T11:27:30.222Z,17.76
2017-04-16T11:28:41.264Z,17.71
2017-04-16T11:29:52.329Z,17.96
2017-04-16T11:31:03.380Z,18.11
2017-04-16T11:32:14.423Z,18.32
2017-04-16T11:33:25.717Z,18.34
2017-04-16T11:34:36.760Z,18.29
2017-04-16T11:35:47.810Z,18.19
2017-04-16T11:36:59.060Z,18.08
2017-04-16T11:38:10.098Z,17.71
2017-04-16T11:39:21.140Z,17.47
2017-04-16T11:40:32.190Z,17.5
2017-04-16T11:41:43.228Z,17.58
2017-04-16T11:42:54.266Z,17.46
2017-04-16T11:44:05.365Z,17.4
2017-04-16T11:45:16.421Z,17.22
2017-04-16T11:46:27.453Z,17.21
2017-04-16T11:47:38.493Z,17.25
2017-04-16T11:48:49.531Z,17.32
2017-04-16T11:50:00.576Z,17.36
2017-04-16T11:51:11.928Z,17.57
2017-04-16T11:52:22.984Z,17.87
2017-04-16T11:53:34.023Z,18.08
2017-04-16T11:54:45.061Z,18.32
2017-04-16T11:55:56.158Z,18.44
2017-04-16T11:57:07.413Z,18.34
2017-04-16T11:58:18.474Z,18.17
2017-04-16T11:59:29.516Z,18.13
2017-04-16T12:00:40.552Z,18.02
2017-04-16T12:01:51.588Z,17.98
2017-04-16T12:03:02.640Z,18.05
2017-04-16T12:04:13.879Z,18.03
2017-04-16T12:05:25.179Z,17.94
2017-04-16T12:06:36.429Z,18.03
2017-04-16T12:07:47.666Z,18.03
2017-04-16T12:08:58.708Z,17.81
2017-04-16T12:10:09.749Z,17.81
2017-04-16T12:11:21.064Z,17.6
2017-04-16T12:12:32.291Z,17.54
2017-04-16T12:13:43.632Z,17.49
2017-04-16T12:14:54.747Z,17.58
2017-04-16T12:16:06.244Z,17.65
2017-04-16T12:17:17.284Z,17.77
2017-04-16T12:18:28.546Z,17.98
2017-04-16T12:19:39.594Z,18.02
2017-04-16T12:20:50.633Z,18.05
2017-04-16T12:22:01.671Z,18.08
2017-04-16T12:23:12.728Z,18.02
2017-04-16T12:24:23.768Z,17.49
2017-04-16T12:25:34.809Z,17.42
2017-04-16T12:26:45.889Z,17.17
2017-04-16T12:27:56.934Z,16.73
2017-04-16T12:29:08.004Z,16.59
2017-04-16T12:30:19.039Z,16.44
2017-04-16T12:31:30.287Z,16.14
2017-04-16T12:32:41.330Z,16
2017-04-16T12:33:52.574Z,15.95
2017-04-16T12:35:03.621Z,15.8
2017-04-16T12:36:14.777Z,15.6
2017-04-16T12:37:26.052Z,15.65
2017-04-16T12:38:37.339Z,15.6
2017-04-16T12:39:48.381Z,15.58
2017-04-16T12:40:59.416Z,15.49
2017-04-16T12:42:10.455Z,15.47
2017-04-16T12:43:21.688Z,15.37
2017-04-16T12:44:32.728Z,15.19
2017-04-16T12:45:43.955Z,15.13
2017-04-16T12:46:54.986Z,15.01
2017-04-16T12:48:06.284Z,14.95
2017-04-16T12:49:17.328Z,14.95
2017-04-16T12:50:28.376Z,14.63
2017-04-16T12:51:39.411Z,14.63
2017-04-16T12:52:50.435Z,14.69
2017-04-16T12:54:01.673Z,14.56
2017-04-16T12:55:12.707Z,14.53
2017-04-16T12:56:23.936Z,14.39
2017-04-16T12:57:34.977Z,14.33
2017-04-16T12:58:46.264Z,14.21
2017-04-16T12:59:57.301Z,14.28
2017-04-16T13:01:08.533Z,14.19
2017-04-16T13:02:19.702Z,14.16
2017-04-16T13:03:30.724Z,14.03
2017-04-16T13:04:41.758Z,14.11
2017-04-16T13:05:52.778Z,14.16
2017-04-16T13:07:04.014Z,14.09
2017-04-16T13:08:15.035Z,14.08
2017-04-16T13:09:26.110Z,14.01
2017-04-16T13:10:37.148Z,13.94
2017-04-16T13:11:48.177Z,13.94
2017-04-16T13:12:59.206Z,13.94
2017-04-16T13:14:10.252Z,13.94
2017-04-16T13:15:21.299Z,13.95
2017-04-16T13:16:32.330Z,14.01
2017-04-16T13:17:43.378Z,14.09
2017-04-16T13:18:54.397Z,14.08
2017-04-16T13:20:05.684Z,14.08
2017-04-16T13:21:16.710Z,13.79
2017-04-16T13:22:27.745Z,13.84
2017-04-16T13:23:38.779Z,13.58
2017-04-16T13:24:49.811Z,13.47
2017-04-16T13:26:00.956Z,13.32
2017-04-16T13:27:12.291Z,13.13
2017-04-16T13:28:24.005Z,13.03
2017-04-16T13:29:35.022Z,13.01
2017-04-16T13:30:46.115Z,13.01
2017-04-16T13:31:57.345Z,12.92
2017-04-16T13:33:08.387Z,12.81
2017-04-16T13:34:19.417Z,12.94
2017-04-16T13:35:30.445Z,12.89
2017-04-16T13:36:41.469Z,12.91
2017-04-16T13:37:52.498Z,12.96
2017-04-16T13:39:03.530Z,13.07
2017-04-16T13:40:14.574Z,12.92
2017-04-16T13:41:25.856Z,12.88
2017-04-16T13:42:36.884Z,12.91
2017-04-16T13:43:47.942Z,12.77
2017-04-16T13:44:58.976Z,12.77
2017-04-16T13:46:10.009Z,12.76
2017-04-16T13:47:21.039Z,12.76
2017-04-16T13:48:32.064Z,12.66
2017-04-16T13:49:43.095Z,12.62
2017-04-16T13:50:54.135Z,12.61
2017-04-16T13:52:05.162Z,12.59
2017-04-16T13:53:16.313Z,12.55
2017-04-16T13:54:27.757Z,12.55
2017-04-16T13:55:38.783Z,12.61
2017-04-16T13:56:49.811Z,12.53
2017-04-16T13:58:00.850Z,12.51
2017-04-16T13:59:11.876Z,12.53
2017-04-16T14:00:23.100Z,12.45
2017-04-16T14:01:34.128Z,12.45
2017-04-16T14:02:45.152Z,12.44
2017-04-16T14:03:56.639Z,12.37
2017-04-16T14:05:07.687Z,12.31
2017-04-16T14:06:18.920Z,12.18
2017-04-16T14:07:29.949Z,12.01
2017-04-16T14:08:40.978Z,11.64
2017-04-16T14:09:52.016Z,11.31
2017-04-16T14:11:03.251Z,11.08
2017-04-16T14:12:14.277Z,10.85
2017-04-16T14:13:25.364Z,10.65
2017-04-16T14:14:36.418Z,10.63
2017-04-16T14:15:47.448Z,10.54
2017-04-16T14:16:58.686Z,10.51
2017-04-16T14:18:10.108Z,10.52
2017-04-16T14:19:21.340Z,10.38
2017-04-16T14:20:32.368Z,10.32
2017-04-16T14:21:43.396Z,10.35
2017-04-16T14:22:54.820Z,10.41
2017-04-16T14:24:05.912Z,10.38
2017-04-16T14:25:16.948Z,10.41
2017-04-16T14:26:27.979Z,10.14
2017-04-16T14:27:39.009Z,9.99
2017-04-16T14:28:50.246Z,10.02
2017-04-16T14:30:01.532Z,9.89
2017-04-16T14:31:12.763Z,9.82
2017-04-16T14:32:23.797Z,9.85
2017-04-16T14:33:34.830Z,9.8
2017-04-16T14:34:45.857Z,9.66
2017-04-16T14:35:56.895Z,9.82
2017-04-16T14:37:07.930Z,9.62
2017-04-16T14:38:18.960Z,9.57
2017-04-16T14:39:29.996Z,9.52
2017-04-16T14:40:41.268Z,9.5
2017-04-16T14:41:52.429Z,9.45
2017-04-16T14:43:03.451Z,9.55
2017-04-16T14:44:14.685Z,9.52
2017-04-16T14:45:25.720Z,9.56
2017-04-16T14:46:36.953Z,9.55
2017-04-16T14:47:47.978Z,9.27
2017-04-16T14:48:59.411Z,9.3
2017-04-16T14:50:10.444Z,9.29
2017-04-16T14:51:21.547Z,9.35
2017-04-16T14:52:32.568Z,9.38
2017-04-16T14:53:43.583Z,9.3
2017-04-16T14:54:54.826Z,9.44
2017-04-16T14:56:06.257Z,9.41
2017-04-16T14:57:17.291Z,9.42
2017-04-16T14:58:28.528Z,9.57
2017-04-16T14:59:39.565Z,9.64
2017-04-16T15:00:50.588Z,9.72
2017-04-16T15:02:01.884Z,9.74
2017-04-16T15:03:12.911Z,9.84
2017-04-16T15:04:23.941Z,10.1
2017-04-16T15:05:34.965Z,10.14
2017-04-16T15:06:45.988Z,10.18
2017-04-16T15:07:57.121Z,10.29
2017-04-16T15:09:08.365Z,10.29
2017-04-16T15:10:19.601Z,10.28
2017-04-16T15:11:30.835Z,10.38
2017-04-16T15:12:41.954Z,10.49
2017-04-16T15:13:52.993Z,10.55
2017-04-16T15:15:04.035Z,10.58
2017-04-16T15:16:15.283Z,10.58
2017-04-16T15:17:26.315Z,10.59
2017-04-16T15:18:37.551Z,10.65
2017-04-16T15:19:48.584Z,10.65
2017-04-16T15:20:59.607Z,10.58
2017-04-16T15:22:10.836Z,10.47
2017-04-16T15:23:21.866Z,10.51
2017-04-16T15:24:35.505Z,10.57
2017-04-16T15:25:50.495Z,10.66
2017-04-16T15:27:07.305Z,10.47
2017-04-16T15:28:18.351Z,10.38
2017-04-16T15:29:29.380Z,10.41
2017-04-16T15:30:40.638Z,10.38
2017-04-16T15:31:51.664Z,10.32
2017-04-16T15:33:02.689Z,10.39
2017-04-16T15:34:13.970Z,10.41